createdAt,value
2023-04-10T00:01:18.196Z,11.32
2023-04-10T00:02:21.852Z,11.37
2023-04-10T00:03:25.910Z,11.41
2023-04-10T00:04:29.961Z,11.42
2023-04-10T00:05:34.453Z,11.27
2023-04-10T00:06:37.863Z,11.21
2023-04-10T00:07:41.363Z,11.18
2023-04-10T00:08:45.077Z,11.20
2023-04-10T00:09:48.599Z,11.14
2023-04-10T00:10:52.297Z,11.28
2023-04-10T00:11:57.678Z,11.35
2023-04-10T00:13:01.622Z,11.49
2023-04-10T00:14:05.931Z,11.47
2023-04-10T00:15:09.686Z,11.34
2023-04-10T00:16:11.956Z,11.40
2023-04-10T00:17:16.454Z,11.37
2023-04-10T00:18:19.856Z,11.45
2023-04-10T00:19:22.009Z,11.54
2023-04-10T00:20:26.974Z,11.39
2023-04-10T00:21:30.465Z,11.30
2023-04-10T00:22:33.974Z,11.27
2023-04-10T00:23:38.217Z,11.14
2023-04-10T00:24:41.766Z,11.00
2023-04-10T00:25:45.540Z,10.95
2023-04-10T00:26:49.147Z,10.96
2023-04-10T00:27:53.582Z,10.85
2023-04-10T00:28:56.168Z,10.93
2023-04-10T00:29:59.520Z,11.16
2023-04-10T00:31:02.679Z,11.20
2023-04-10T00:32:05.966Z,11.22
2023-04-10T00:33:09.730Z,11.11
2023-04-10T00:34:17.027Z,11.19
2023-04-10T00:35:20.659Z,11.03
2023-04-10T00:36:25.565Z,11.03
2023-04-10T00:37:29.434Z,11.02
2023-04-10T00:38:35.535Z,10.96
2023-04-10T00:39:38.756Z,10.99
2023-04-10T00:40:42.120Z,11.11
2023-04-10T00:41:44.896Z,11.01
2023-04-10T00:42:47.366Z,11.04
2023-04-10T00:43:51.503Z,11.04
2023-04-10T00:44:55.627Z,10.94
2023-04-10T00:45:59.680Z,11.01
2023-04-10T00:47:05.760Z,11.06
2023-04-10T00:48:09.077Z,10.80
2023-04-10T00:49:12.682Z,10.92
2023-04-10T00:50:16.380Z,10.96
2023-04-10T00:51:20.519Z,10.99
2023-04-10T00:52:25.167Z,11.04
2023-04-10T00:53:30.266Z,11.14
2023-04-10T00:54:34.369Z,11.03
2023-04-10T00:55:37.897Z,11.08
2023-04-10T00:56:41.172Z,11.11
2023-04-10T00:57:47.093Z,11.01
2023-04-10T00:58:50.270Z,10.89
2023-04-10T00:59:53.391Z,10.80
2023-04-10T01:01:00.377Z,10.87
2023-04-10T01:02:04.171Z,11.11
2023-04-10T01:03:09.991Z,11.08
2023-04-10T01:04:15.170Z,11.10
2023-04-10T01:05:18.717Z,11.09
2023-04-10T01:06:29.559Z,10.95
2023-04-10T01:07:35.762Z,10.89
2023-04-10T01:08:56.501Z,10.88
2023-04-10T01:10:07.840Z,11.09
2023-04-10T01:11:12.168Z,11.09
2023-04-10T01:12:21.009Z,11.11
2023-04-10T01:13:29.320Z,11.07
2023-04-10T01:14:51.626Z,10.79
2023-04-10T01:15:56.477Z,10.81
2023-04-10T01:17:05.029Z,10.94
2023-04-10T01:18:16.232Z,10.98
2023-04-10T01:19:38.552Z,10.98
2023-04-10T01:20:41.633Z,11.06
2023-04-10T01:21:46.080Z,10.90
2023-04-10T01:23:09.215Z,10.98
2023-04-10T01:24:17.788Z,10.74
2023-04-10T01:25:42.171Z,10.77
2023-04-10T01:27:07.663Z,10.80
2023-04-10T01:28:15.244Z,10.83
2023-04-10T01:29:20.708Z,10.95
2023-04-10T01:30:25.274Z,10.87
2023-04-10T01:31:45.847Z,10.91
2023-04-10T01:32:48.528Z,10.98
2023-04-10T01:33:57.577Z,11.01
2023-04-10T01:35:03.023Z,11.04
2023-04-10T01:36:08.472Z,11.02
2023-04-10T01:37:12.749Z,11.10
2023-04-10T01:38:17.574Z,11.02
2023-04-10T01:39:23.292Z,11.16
2023-04-10T01:40:27.886Z,11.18
2023-04-10T01:41:32.087Z,11.26
2023-04-10T01:42:36.531Z,11.14
2023-04-10T01:43:42.763Z,10.80
2023-04-10T01:44:47.930Z,10.77
2023-04-10T01:45:52.819Z,10.86
2023-04-10T01:46:56.963Z,11.03
2023-04-10T01:48:00.561Z,11.00
2023-04-10T01:49:03.947Z,10.94
2023-04-10T01:50:07.681Z,10.96
2023-04-10T01:51:12.000Z,10.96
2023-04-10T01:52:16.679Z,11.14
2023-04-10T01:53:23.510Z,11.09
2023-04-10T01:54:29.372Z,11.12
2023-04-10T01:55:35.420Z,11.23
2023-04-10T01:56:45.097Z,11.34
2023-04-10T01:57:49.884Z,11.39
2023-04-10T01:58:54.498Z,11.25
2023-04-10T01:59:59.466Z,11.36
2023-04-10T02:01:02.702Z,11.54
2023-04-10T02:02:07.543Z,11.36
2023-04-10T02:03:12.192Z,11.33
2023-04-10T02:04:18.671Z,11.26
2023-04-10T02:05:24.303Z,11.24
2023-04-10T02:06:32.835Z,11.28
2023-04-10T02:07:44.079Z,11.30
2023-04-10T02:08:49.441Z,11.37
2023-04-10T02:10:09.976Z,11.24
2023-04-10T02:11:15.141Z,11.37
2023-04-10T02:12:23.902Z,11.45
2023-04-10T02:13:28.730Z,11.52
2023-04-10T02:14:33.837Z,11.50
2023-04-10T02:15:36.760Z,11.43
2023-04-10T02:16:40.486Z,11.38
2023-04-10T02:17:44.664Z,11.34
2023-04-10T02:18:48.975Z,11.22
2023-04-10T02:19:54.047Z,11.15
2023-04-10T02:20:57.856Z,11.12
2023-04-10T02:22:00.315Z,11.18
2023-04-10T02:23:04.346Z,11.13
2023-04-10T02:24:07.858Z,11.05
2023-04-10T02:25:10.317Z,11.12
2023-04-10T02:26:13.825Z,11.02
2023-04-10T02:27:21.261Z,10.81
2023-04-10T02:28:24.804Z,10.97
2023-04-10T02:29:28.308Z,11.08
2023-04-10T02:30:30.866Z,11.04
2023-04-10T02:31:35.510Z,11.04
2023-04-10T02:32:39.735Z,11.14
2023-04-10T02:33:44.940Z,11.17
2023-04-10T02:34:48.345Z,11.04
2023-04-10T02:35:52.652Z,11.08
2023-04-10T02:36:56.945Z,11.14
2023-04-10T02:38:00.132Z,11.24
2023-04-10T02:39:04.864Z,11.35
2023-04-10T02:40:10.346Z,11.27
2023-04-10T02:41:15.423Z,11.41
2023-04-10T02:42:18.826Z,11.40
2023-04-10T02:43:23.069Z,11.18
2023-04-10T02:44:27.224Z,11.19
2023-04-10T02:45:30.081Z,11.10
2023-04-10T02:46:35.071Z,11.17
2023-04-10T02:47:38.789Z,11.01
2023-04-10T02:48:42.263Z,11.06
2023-04-10T02:49:44.815Z,11.13
2023-04-10T02:50:54.794Z,11.16
2023-04-10T02:51:59.877Z,11.11
2023-04-10T02:53:04.846Z,10.90
2023-04-10T02:54:08.278Z,11.01
2023-04-10T02:55:12.680Z,11.15
2023-04-10T02:56:17.430Z,11.12
2023-04-10T02:57:22.125Z,11.14
2023-04-10T02:58:24.382Z,10.89
2023-04-10T02:59:28.828Z,10.99
2023-04-10T03:00:31.329Z,10.89
2023-04-10T03:01:52.932Z,10.87
2023-04-10T03:02:56.863Z,10.94
2023-04-10T03:04:01.573Z,10.91
2023-04-10T03:05:09.142Z,10.77
2023-04-10T03:06:11.856Z,10.82
2023-04-10T03:07:20.053Z,11.01
2023-04-10T03:08:25.028Z,11.00
2023-04-10T03:09:27.406Z,11.14
2023-04-10T03:10:30.786Z,10.98
2023-04-10T03:11:36.380Z,11.15
2023-04-10T03:12:39.917Z,10.93
2023-04-10T03:13:42.467Z,10.89
2023-04-10T03:14:47.848Z,11.07
2023-04-10T03:15:51.501Z,11.11
2023-04-10T03:16:54.997Z,10.97
2023-04-10T03:17:59.373Z,11.05
2023-04-10T03:19:04.997Z,10.96
2023-04-10T03:20:08.400Z,11.08
2023-04-10T03:21:13.573Z,11.24
2023-04-10T03:22:18.752Z,11.22
2023-04-10T03:23:22.777Z,11.21
2023-04-10T03:24:26.595Z,11.11
2023-04-10T03:25:29.957Z,11.09
2023-04-10T03:26:33.507Z,10.98
2023-04-10T03:27:37.319Z,11.07
2023-04-10T03:28:43.341Z,11.05
2023-04-10T03:29:47.254Z,11.00
2023-04-10T03:30:50.237Z,10.97
2023-04-10T03:31:52.514Z,11.02
2023-04-10T03:32:56.201Z,11.11
2023-04-10T03:33:59.903Z,11.15
2023-04-10T03:35:03.543Z,11.10
2023-04-10T03:36:12.150Z,10.90
2023-04-10T03:37:15.658Z,10.81
2023-04-10T03:38:21.550Z,10.73
2023-04-10T03:39:26.731Z,10.76
2023-04-10T03:40:30.764Z,10.79
2023-04-10T03:41:34.374Z,10.72
2023-04-10T03:42:38.953Z,10.75
2023-04-10T03:43:43.649Z,10.79
2023-04-10T03:44:47.199Z,10.94
2023-04-10T03:45:49.702Z,11.08
2023-04-10T03:46:54.158Z,11.05
2023-04-10T03:47:59.957Z,10.87
2023-04-10T03:49:03.299Z,10.69
2023-04-10T03:50:08.353Z,10.66
2023-04-10T03:51:13.510Z,10.71
2023-04-10T03:52:17.151Z,10.67
2023-04-10T03:53:22.752Z,10.83
2023-04-10T03:54:26.888Z,10.88
2023-04-10T03:55:32.499Z,10.90
2023-04-10T03:56:35.975Z,10.75
2023-04-10T03:57:39.479Z,10.68
2023-04-10T03:58:43.720Z,10.76
2023-04-10T03:59:47.940Z,10.86
2023-04-10T04:00:51.144Z,10.90
2023-04-10T04:01:56.411Z,10.89
2023-04-10T04:03:02.826Z,10.67
2023-04-10T04:04:26.619Z,10.71
2023-04-10T04:05:35.767Z,10.71
2023-04-10T04:06:42.510Z,10.81
2023-04-10T04:07:53.248Z,10.84
2023-04-10T04:09:00.838Z,10.74
2023-04-10T04:10:18.209Z,10.85
2023-04-10T04:11:29.541Z,11.05
2023-04-10T04:12:34.699Z,11.10
2023-04-10T04:13:43.017Z,10.86
2023-04-10T04:14:48.509Z,10.99
2023-04-10T04:16:05.045Z,10.97
2023-04-10T04:17:13.054Z,10.97
2023-04-10T04:18:18.145Z,10.88
2023-04-10T04:19:23.236Z,10.84
2023-04-10T04:20:27.655Z,11.07
2023-04-10T04:21:49.239Z,10.98
2023-04-10T04:22:58.582Z,11.14
2023-04-10T04:24:13.672Z,11.18
2023-04-10T04:25:37.036Z,11.22
2023-04-10T04:26:57.891Z,11.22
2023-04-10T04:28:19.976Z,11.04
2023-04-10T04:29:30.780Z,11.12
2023-04-10T04:30:36.283Z,11.01
2023-04-10T04:31:47.641Z,10.98
2023-04-10T04:33:11.039Z,10.95
2023-04-10T04:34:27.738Z,11.04
2023-04-10T04:35:43.880Z,11.12
2023-04-10T04:36:49.048Z,11.30
2023-04-10T04:37:54.443Z,11.36
2023-04-10T04:39:04.954Z,11.25
2023-04-10T04:40:16.077Z,11.12
2023-04-10T04:41:38.513Z,11.06
2023-04-10T04:42:59.959Z,11.21
2023-04-10T04:44:23.332Z,11.12
2023-04-10T04:45:31.937Z,11.10
2023-04-10T04:46:44.657Z,11.12
2023-04-10T04:48:07.873Z,11.20
2023-04-10T04:49:22.866Z,11.41
2023-04-10T04:50:29.087Z,11.42
2023-04-10T04:51:34.570Z,11.41
2023-04-10T04:52:41.840Z,11.23
2023-04-10T04:53:52.691Z,11.00
2023-04-10T04:55:14.448Z,11.09
2023-04-10T04:56:22.371Z,11.29
2023-04-10T04:57:27.708Z,11.20
2023-04-10T04:58:32.900Z,11.16
2023-04-10T04:59:57.922Z,11.07
2023-04-10T05:02:32.406Z,11.48
2023-04-10T05:03:54.338Z,11.26
2023-04-10T05:05:10.044Z,11.25
2023-04-10T05:06:19.247Z,11.33
2023-04-10T05:07:24.207Z,11.24
2023-04-10T05:08:29.291Z,11.27
2023-04-10T05:09:45.205Z,11.21
2023-04-10T05:11:08.586Z,11.23
2023-04-10T05:12:18.845Z,11.15
2023-04-10T05:13:24.261Z,11.14
2023-04-10T05:14:29.529Z,11.05
2023-04-10T05:15:34.830Z,11.18
2023-04-10T05:16:42.295Z,11.12
2023-04-10T05:17:53.017Z,11.27
2023-04-10T05:19:15.207Z,11.19
2023-04-10T05:20:33.335Z,11.17
2023-04-10T05:21:57.661Z,11.18
2023-04-10T05:23:21.392Z,11.27
2023-04-10T05:24:36.682Z,11.37
2023-04-10T05:25:48.781Z,11.24
2023-04-10T05:26:53.209Z,11.06
2023-04-10T05:27:58.602Z,11.04
2023-04-10T05:29:11.102Z,11.09
2023-04-10T05:30:33.708Z,11.31
2023-04-10T05:31:55.494Z,11.37
2023-04-10T05:33:16.324Z,11.27
2023-04-10T05:34:28.953Z,11.37
2023-04-10T05:35:47.613Z,11.47
2023-04-10T05:36:59.846Z,11.39
2023-04-10T05:38:05.254Z,11.38
2023-04-10T05:39:22.641Z,11.34
2023-04-10T05:40:38.157Z,11.40
2023-04-10T05:41:45.613Z,11.28
2023-04-10T05:43:06.709Z,11.28
2023-04-10T05:44:14.888Z,11.19
2023-04-10T05:45:35.312Z,11.18
2023-04-10T05:46:40.509Z,11.39
2023-04-10T05:47:46.890Z,11.22
2023-04-10T05:50:10.755Z,11.45
2023-04-10T05:51:29.496Z,11.42
2023-04-10T05:52:52.290Z,11.36
2023-04-10T05:54:00.134Z,11.29
2023-04-10T05:55:07.011Z,11.41
2023-04-10T05:56:15.924Z,11.61
2023-04-10T05:57:37.784Z,11.49
2023-04-10T05:59:02.178Z,11.48
2023-04-10T06:00:16.022Z,11.35
2023-04-10T06:01:22.772Z,11.31
2023-04-10T06:02:28.641Z,11.26
2023-04-10T06:03:31.903Z,11.21
2023-04-10T06:04:37.823Z,11.06
2023-04-10T06:05:42.426Z,11.02
2023-04-10T06:06:46.257Z,11.17
2023-04-10T06:07:49.963Z,11.24
2023-04-10T06:08:54.045Z,11.35
2023-04-10T06:09:58.952Z,11.43
2023-04-10T06:11:02.585Z,11.44
2023-04-10T06:12:06.176Z,11.20
2023-04-10T06:13:10.556Z,11.08
2023-04-10T06:14:16.212Z,11.21
2023-04-10T06:15:20.124Z,11.06
2023-04-10T06:16:23.464Z,11.02
2023-04-10T06:17:27.872Z,11.16
2023-04-10T06:18:33.250Z,10.94
2023-04-10T06:19:36.766Z,10.86
2023-04-10T06:20:40.166Z,11.10
2023-04-10T06:21:43.588Z,11.23
2023-04-10T06:22:48.957Z,11.34
2023-04-10T06:23:52.150Z,11.20
2023-04-10T06:24:57.009Z,10.96
2023-04-10T06:26:04.060Z,10.99
2023-04-10T06:27:07.347Z,10.99
2023-04-10T06:28:11.725Z,10.93
2023-04-10T06:29:16.080Z,11.07
2023-04-10T06:30:19.328Z,11.14
2023-04-10T06:31:23.894Z,10.98
2023-04-10T06:32:26.666Z,11.19
2023-04-10T06:33:29.116Z,11.18
2023-04-10T06:34:33.670Z,11.21
2023-04-10T06:35:42.339Z,10.99
2023-04-10T06:36:47.641Z,10.81
2023-04-10T06:37:52.118Z,10.90
2023-04-10T06:38:56.206Z,10.84
2023-04-10T06:40:04.779Z,10.97
2023-04-10T06:41:08.489Z,11.03
2023-04-10T06:42:11.667Z,10.92
2023-04-10T06:43:20.929Z,11.01
2023-04-10T06:44:24.886Z,11.04
2023-04-10T06:45:28.774Z,10.88
2023-04-10T06:46:32.216Z,10.91
2023-04-10T06:47:36.104Z,11.03
2023-04-10T06:48:39.302Z,11.10
2023-04-10T06:49:43.444Z,11.08
2023-04-10T06:50:46.717Z,11.19
2023-04-10T06:51:50.314Z,11.44
2023-04-10T06:52:57.441Z,11.46
2023-04-10T06:54:00.890Z,11.41
2023-04-10T06:55:03.352Z,11.56
2023-04-10T06:56:07.919Z,11.75
2023-04-10T06:57:11.290Z,11.55
2023-04-10T06:58:15.562Z,11.63
2023-04-10T06:59:18.936Z,11.51
2023-04-10T07:00:21.698Z,11.55
2023-04-10T07:01:26.059Z,11.33
2023-04-10T07:02:29.937Z,11.34
2023-04-10T07:03:33.596Z,11.13
2023-04-10T07:04:37.503Z,11.06
2023-04-10T07:05:42.308Z,11.01
2023-04-10T07:06:45.030Z,11.17
2023-04-10T07:07:48.541Z,11.15
2023-04-10T07:08:52.380Z,11.18
2023-04-10T07:09:56.696Z,11.12
2023-04-10T07:11:00.325Z,11.20
2023-04-10T07:12:04.021Z,11.13
2023-04-10T07:13:07.012Z,11.18
2023-04-10T07:14:10.247Z,11.37
2023-04-10T07:15:13.909Z,11.41
2023-04-10T07:16:17.529Z,11.38
2023-04-10T07:17:21.241Z,11.42
2023-04-10T07:18:24.611Z,11.52
2023-04-10T07:19:28.129Z,11.42
2023-04-10T07:20:30.382Z,11.50
2023-04-10T07:21:34.103Z,11.44
2023-04-10T07:22:37.612Z,11.63
2023-04-10T07:23:42.880Z,11.72
2023-04-10T07:24:47.553Z,11.73
2023-04-10T07:25:53.856Z,11.73
2023-04-10T07:26:58.648Z,11.96
2023-04-10T07:28:02.256Z,11.98
2023-04-10T07:29:05.416Z,11.94
2023-04-10T07:30:08.924Z,11.99
2023-04-10T07:31:11.499Z,12.23
2023-04-10T07:32:14.956Z,12.41
2023-04-10T07:33:17.757Z,12.44
2023-04-10T07:34:21.308Z,12.32
2023-04-10T07:35:24.481Z,12.54
2023-04-10T07:36:30.655Z,12.51
2023-04-10T07:37:34.957Z,12.67
2023-04-10T07:38:38.652Z,12.56
2023-04-10T07:39:42.150Z,12.81
2023-04-10T07:40:45.437Z,12.35
2023-04-10T07:41:48.647Z,12.46
2023-04-10T07:42:54.095Z,12.25
2023-04-10T07:43:56.374Z,12.20
2023-04-10T07:45:00.504Z,12.39
2023-04-10T07:46:04.147Z,12.46
2023-04-10T07:47:09.443Z,12.54
2023-04-10T07:48:12.706Z,12.39
2023-04-10T07:49:15.145Z,12.47
2023-04-10T07:50:18.481Z,12.44
2023-04-10T07:51:22.268Z,12.58
2023-04-10T07:52:25.680Z,12.58
2023-04-10T07:53:29.002Z,12.46
2023-04-10T07:54:34.728Z,12.53
2023-04-10T07:55:39.736Z,12.48
2023-04-10T07:56:43.232Z,12.59
2023-04-10T07:57:47.183Z,12.37
2023-04-10T07:58:50.870Z,12.51
2023-04-10T07:59:54.383Z,12.38
2023-04-10T08:00:59.073Z,12.64
2023-04-10T08:02:02.630Z,12.75
2023-04-10T08:03:10.204Z,12.76
2023-04-10T08:04:18.195Z,13.17
2023-04-10T08:05:22.262Z,12.98
2023-04-10T08:06:28.382Z,13.03
2023-04-10T08:07:32.079Z,13.16
2023-04-10T08:08:38.934Z,13.13
2023-04-10T08:09:42.357Z,13.23
2023-04-10T08:10:59.619Z,13.26
2023-04-10T08:12:01.034Z,13.15
2023-04-10T08:13:06.558Z,12.88
2023-04-10T08:14:10.140Z,12.83
2023-04-10T08:15:12.901Z,12.86
2023-04-10T08:16:16.251Z,12.88
2023-04-10T08:17:19.524Z,12.81
2023-04-10T08:18:22.866Z,13.06
2023-04-10T08:19:26.718Z,13.14
2023-04-10T08:20:30.140Z,13.03
2023-04-10T08:21:33.368Z,12.96
2023-04-10T08:22:39.629Z,13.03
2023-04-10T08:23:43.452Z,12.79
2023-04-10T08:24:46.851Z,12.99
2023-04-10T08:25:50.575Z,13.16
2023-04-10T08:26:52.730Z,12.92
2023-04-10T08:27:58.059Z,12.72
2023-04-10T08:29:02.764Z,12.75
2023-04-10T08:30:06.501Z,12.81
2023-04-10T08:31:11.867Z,12.55
2023-04-10T08:32:15.565Z,12.82
2023-04-10T08:33:18.860Z,12.74
2023-04-10T08:34:23.888Z,12.78
2023-04-10T08:35:28.374Z,13.07
2023-04-10T08:36:31.583Z,13.16
2023-04-10T08:37:36.011Z,13.40
2023-04-10T08:38:41.189Z,13.62
2023-04-10T08:39:44.409Z,13.72
2023-04-10T08:40:48.092Z,13.52
2023-04-10T08:41:52.954Z,13.53
2023-04-10T08:42:56.684Z,13.43
2023-04-10T08:44:00.168Z,13.51
2023-04-10T08:45:04.622Z,13.68
2023-04-10T08:46:07.340Z,13.45
2023-04-10T08:47:11.334Z,13.83
2023-04-10T08:48:17.468Z,13.86
2023-04-10T08:49:33.253Z,13.83
2023-04-10T08:50:38.651Z,14.04
2023-04-10T08:51:45.834Z,13.57
2023-04-10T08:52:50.767Z,13.53
2023-04-10T08:53:55.162Z,13.41
2023-04-10T08:55:00.280Z,13.38
2023-04-10T08:56:04.437Z,13.61
2023-04-10T08:57:10.697Z,13.51
2023-04-10T08:58:15.508Z,13.67
2023-04-10T08:59:20.084Z,13.71
2023-04-10T09:00:26.907Z,13.68
2023-04-10T09:01:30.900Z,13.73
2023-04-10T09:02:38.149Z,13.71
2023-04-10T09:03:43.474Z,13.86
2023-04-10T09:04:51.184Z,14.02
2023-04-10T09:05:56.052Z,14.24
2023-04-10T09:06:59.246Z,14.21
2023-04-10T09:08:05.169Z,14.12
2023-04-10T09:09:08.666Z,14.19
2023-04-10T09:10:11.510Z,13.76
2023-04-10T09:11:19.242Z,14.04
2023-04-10T09:12:24.944Z,14.30
2023-04-10T09:13:41.446Z,14.16
2023-04-10T09:14:46.989Z,14.13
2023-04-10T09:15:51.649Z,14.04
2023-04-10T09:16:55.404Z,14.21
2023-04-10T09:18:03.494Z,14.54
2023-04-10T09:19:07.746Z,14.73
2023-04-10T09:20:13.234Z,14.75
2023-04-10T09:21:17.165Z,14.67
2023-04-10T09:22:22.336Z,14.41
2023-04-10T09:23:25.514Z,14.51
2023-04-10T09:24:28.748Z,14.15
2023-04-10T09:25:37.381Z,14.08
2023-04-10T09:26:42.724Z,13.87
2023-04-10T09:27:46.453Z,14.14
2023-04-10T09:28:59.973Z,13.86
2023-04-10T09:30:03.777Z,14.04
2023-04-10T09:31:09.350Z,14.36
2023-04-10T09:32:12.142Z,14.40
2023-04-10T09:33:23.615Z,14.59
2023-04-10T09:34:29.716Z,14.75
2023-04-10T09:35:39.692Z,14.66
2023-04-10T09:36:47.162Z,14.86
2023-04-10T09:37:50.872Z,14.74
2023-04-10T09:38:56.479Z,14.70
2023-04-10T09:40:01.163Z,14.90
2023-04-10T09:41:08.294Z,15.15
2023-04-10T09:42:15.385Z,14.76
2023-04-10T09:43:27.426Z,14.99
2023-04-10T09:44:35.837Z,15.11
2023-04-10T09:45:48.862Z,15.08
2023-04-10T09:46:52.489Z,14.65
2023-04-10T09:47:58.209Z,14.63
2023-04-10T09:49:08.053Z,15.03
2023-04-10T09:50:11.312Z,15.33
2023-04-10T09:51:31.648Z,15.16
2023-04-10T09:52:39.627Z,15.02
2023-04-10T09:53:53.540Z,15.24
2023-04-10T09:54:59.101Z,15.28
2023-04-10T09:56:03.541Z,15.48
2023-04-10T09:57:09.828Z,15.36
2023-04-10T09:58:13.814Z,15.44
2023-04-10T09:59:21.258Z,15.76
2023-04-10T10:00:27.317Z,16.03
2023-04-10T10:01:32.652Z,16.39
2023-04-10T10:02:37.992Z,16.46
2023-04-10T10:03:42.294Z,16.38
2023-04-10T10:04:47.448Z,16.24
2023-04-10T10:05:52.148Z,15.78
2023-04-10T10:06:55.076Z,16.11
2023-04-10T10:07:58.893Z,15.92
2023-04-10T10:09:07.004Z,16.03
2023-04-10T10:10:12.281Z,15.95
2023-04-10T10:11:19.123Z,15.79
2023-04-10T10:12:25.099Z,15.21
2023-04-10T10:13:39.845Z,14.93
2023-04-10T10:14:45.518Z,15.00
2023-04-10T10:15:51.868Z,14.97
2023-04-10T10:16:57.887Z,15.05
2023-04-10T10:18:05.710Z,15.31
2023-04-10T10:19:13.739Z,15.38
2023-04-10T10:20:17.574Z,15.31
2023-04-10T10:21:21.692Z,15.53
2023-04-10T10:22:26.867Z,15.80
2023-04-10T10:23:31.349Z,15.52
2023-04-10T10:24:35.956Z,15.51
2023-04-10T10:25:38.769Z,15.49
2023-04-10T10:26:44.184Z,15.68
2023-04-10T10:27:50.170Z,16.05
2023-04-10T10:28:54.756Z,15.90
2023-04-10T10:30:03.071Z,16.11
2023-04-10T10:31:06.900Z,16.43
2023-04-10T10:32:12.101Z,16.48
2023-04-10T10:33:15.816Z,16.35
2023-04-10T10:34:20.576Z,16.80
2023-04-10T10:35:26.332Z,16.74
2023-04-10T10:36:30.163Z,16.45
2023-04-10T10:37:33.800Z,16.41
2023-04-10T10:38:38.863Z,16.35
2023-04-10T10:39:43.408Z,15.86
2023-04-10T10:40:55.524Z,15.90
2023-04-10T10:42:11.030Z,15.74
2023-04-10T10:43:19.006Z,15.87
2023-04-10T10:44:36.813Z,15.56
2023-04-10T10:45:47.022Z,15.68
2023-04-10T10:46:55.138Z,15.59
2023-04-10T10:47:58.529Z,15.65
2023-04-10T10:49:02.175Z,15.51
2023-04-10T10:50:06.040Z,15.58
2023-04-10T10:51:10.891Z,15.56
2023-04-10T10:52:14.285Z,15.55
2023-04-10T10:53:25.384Z,15.42
2023-04-10T10:54:32.810Z,15.44
2023-04-10T10:55:36.521Z,15.40
2023-04-10T10:56:39.176Z,15.47
2023-04-10T10:57:49.866Z,15.54
2023-04-10T10:58:54.395Z,15.73
2023-04-10T11:00:02.324Z,15.93
2023-04-10T11:01:08.436Z,15.82
2023-04-10T11:02:18.275Z,15.58
2023-04-10T11:03:23.932Z,15.65
2023-04-10T11:04:43.946Z,15.46
2023-04-10T11:05:55.790Z,15.04
2023-04-10T11:06:59.106Z,15.36
2023-04-10T11:08:03.744Z,15.37
2023-04-10T11:09:06.241Z,15.50
2023-04-10T11:10:11.105Z,15.54
2023-04-10T11:11:23.969Z,15.70
2023-04-10T11:12:26.618Z,15.80
2023-04-10T11:13:30.169Z,15.73
2023-04-10T11:14:33.557Z,15.52
2023-04-10T11:15:36.519Z,15.24
2023-04-10T11:16:45.110Z,15.30
2023-04-10T11:17:53.818Z,15.28
2023-04-10T11:19:15.390Z,15.22
2023-04-10T11:20:14.836Z,15.51
2023-04-10T11:21:22.061Z,15.32
2023-04-10T11:22:24.708Z,15.18
2023-04-10T11:23:29.588Z,15.37
2023-04-10T11:24:51.992Z,15.41
2023-04-10T11:25:56.254Z,15.44
2023-04-10T11:27:01.325Z,15.56
2023-04-10T11:28:08.290Z,15.28
2023-04-10T11:29:17.522Z,15.31
2023-04-10T11:30:29.907Z,15.64
2023-04-10T11:31:34.368Z,15.87
2023-04-10T11:32:42.840Z,16.15
2023-04-10T11:33:46.882Z,16.39
2023-04-10T11:34:51.020Z,16.66
2023-04-10T11:35:56.483Z,16.85
2023-04-10T11:37:02.820Z,16.68
2023-04-10T11:38:10.804Z,16.53
2023-04-10T11:39:15.408Z,16.90
2023-04-10T11:40:20.432Z,17.06
2023-04-10T11:41:31.075Z,17.46
2023-04-10T11:42:34.550Z,17.97
2023-04-10T11:43:40.066Z,18.11
2023-04-10T11:44:48.742Z,18.12
2023-04-10T11:45:49.989Z,17.55
2023-04-10T11:46:52.839Z,17.49
2023-04-10T11:47:56.477Z,17.47
2023-04-10T11:48:59.861Z,16.90
2023-04-10T11:50:03.942Z,16.87
2023-04-10T11:51:08.542Z,16.90
2023-04-10T11:52:11.938Z,16.83
2023-04-10T11:53:19.401Z,16.95
2023-04-10T11:54:24.683Z,17.32
2023-04-10T11:55:38.647Z,17.35
2023-04-10T11:56:43.107Z,16.93
2023-04-10T11:57:46.410Z,16.77
2023-04-10T11:58:50.197Z,16.61
2023-04-10T11:59:53.497Z,16.43
2023-04-10T12:00:59.082Z,16.34
2023-04-10T12:02:08.476Z,16.43
2023-04-10T12:03:12.610Z,16.48
2023-04-10T12:04:17.618Z,16.45
2023-04-10T12:05:20.480Z,16.52
2023-04-10T12:06:25.002Z,16.35
2023-04-10T12:07:33.177Z,16.29
2023-04-10T12:08:37.610Z,16.26
2023-04-10T12:09:41.361Z,16.04
2023-04-10T12:10:45.146Z,16.08
2023-04-10T12:11:54.473Z,16.57
2023-04-10T12:13:00.524Z,16.78
2023-04-10T12:14:04.012Z,16.31
2023-04-10T12:15:28.107Z,16.32
2023-04-10T12:16:34.414Z,16.46
2023-04-10T12:17:37.446Z,16.15
2023-04-10T12:18:40.190Z,16.16
2023-04-10T12:19:42.946Z,16.41
2023-04-10T12:20:46.141Z,16.47
2023-04-10T12:21:49.705Z,16.39
2023-04-10T12:22:54.693Z,16.37
2023-04-10T12:23:56.644Z,16.19
2023-04-10T12:25:02.779Z,16.28
2023-04-10T12:26:08.480Z,16.33
2023-04-10T12:27:18.687Z,16.35
2023-04-10T12:28:22.809Z,16.49
2023-04-10T12:29:29.448Z,16.37
2023-04-10T12:30:34.408Z,16.39
2023-04-10T12:31:37.395Z,16.47
2023-04-10T12:32:40.320Z,16.49
2023-04-10T12:33:47.572Z,16.37
2023-04-10T12:34:56.056Z,16.11
2023-04-10T12:35:59.198Z,15.82
2023-04-10T12:37:06.821Z,15.94
2023-04-10T12:38:10.123Z,15.65
2023-04-10T12:39:20.505Z,15.39
2023-04-10T12:40:23.912Z,15.38
2023-04-10T12:41:29.950Z,15.18
2023-04-10T12:42:40.225Z,15.08
2023-04-10T12:43:44.258Z,14.80
2023-04-10T12:44:53.298Z,14.87
2023-04-10T12:45:56.993Z,14.71
2023-04-10T12:47:02.086Z,14.91
2023-04-10T12:48:05.591Z,14.90
2023-04-10T12:49:14.595Z,14.60
2023-04-10T12:50:19.847Z,14.76
2023-04-10T12:51:36.791Z,14.54
2023-04-10T12:52:42.068Z,14.71
2023-04-10T12:53:46.710Z,14.50
2023-04-10T12:54:48.961Z,14.47
2023-04-10T12:56:01.153Z,14.34
2023-04-10T12:57:04.873Z,14.18
2023-04-10T12:58:18.252Z,14.26
2023-04-10T12:59:22.980Z,14.34
2023-04-10T13:00:26.034Z,14.15
2023-04-10T13:01:29.483Z,14.30
2023-04-10T13:02:32.687Z,14.27
2023-04-10T13:03:37.284Z,14.28
2023-04-10T13:04:42.409Z,14.09
2023-04-10T13:05:47.703Z,14.13
2023-04-10T13:06:53.118Z,14.16
2023-04-10T13:07:55.891Z,14.11
2023-04-10T13:08:59.397Z,14.12
2023-04-10T13:10:02.040Z,14.27
2023-04-10T13:11:06.304Z,14.41
2023-04-10T13:12:09.596Z,14.17
2023-04-10T13:13:14.650Z,14.22
2023-04-10T13:14:18.491Z,13.97
2023-04-10T13:15:21.987Z,14.01
2023-04-10T13:16:25.771Z,14.06
2023-04-10T13:17:31.119Z,14.21
2023-04-10T13:18:37.116Z,14.49
2023-04-10T13:19:40.381Z,14.72
2023-04-10T13:20:43.165Z,14.85
2023-04-10T13:21:47.919Z,14.95
2023-04-10T13:22:54.572Z,15.09
2023-04-10T13:23:57.545Z,15.12
2023-04-10T13:25:01.767Z,15.32
2023-04-10T13:26:09.670Z,15.41
2023-04-10T13:27:13.903Z,15.52
2023-04-10T13:28:21.877Z,15.69
2023-04-10T13:29:24.986Z,15.61
2023-04-10T13:30:28.916Z,15.60
2023-04-10T13:31:32.491Z,15.80
2023-04-10T13:32:37.561Z,16.01
2023-04-10T13:33:40.890Z,16.04
2023-04-10T13:34:46.884Z,16.08
2023-04-10T13:35:50.549Z,15.93
2023-04-10T13:36:54.376Z,15.92
2023-04-10T13:37:59.613Z,16.05
2023-04-10T13:39:02.913Z,16.17
2023-04-10T13:40:07.363Z,16.18
2023-04-10T13:41:11.172Z,16.11
2023-04-10T13:42:14.447Z,15.81
2023-04-10T13:43:19.541Z,15.73
2023-04-10T13:44:21.678Z,15.64
2023-04-10T13:45:25.642Z,15.74
2023-04-10T13:46:29.039Z,15.79
2023-04-10T13:47:35.791Z,15.85
2023-04-10T13:48:41.887Z,15.82
2023-04-10T13:49:47.682Z,15.84
2023-04-10T13:50:51.389Z,15.73
2023-04-10T13:51:54.893Z,15.65
2023-04-10T13:52:59.014Z,15.55
2023-04-10T13:54:04.656Z,15.73
2023-04-10T13:55:08.761Z,15.83
2023-04-10T13:56:12.321Z,15.83
2023-04-10T13:57:15.874Z,15.75
2023-04-10T13:58:23.002Z,15.78
2023-04-10T13:59:26.531Z,15.76
2023-04-10T14:00:29.882Z,15.77
2023-04-10T14:01:33.112Z,15.75
2023-04-10T14:02:36.665Z,15.75
2023-04-10T14:03:39.330Z,15.76
2023-04-10T14:04:42.497Z,15.71
2023-04-10T14:05:46.268Z,15.70
2023-04-10T14:06:51.728Z,15.85
2023-04-10T14:07:56.353Z,15.87
2023-04-10T14:09:00.404Z,15.84
2023-04-10T14:10:03.733Z,15.86
2023-04-10T14:11:07.704Z,15.87
2023-04-10T14:12:13.801Z,15.92
2023-04-10T14:13:17.658Z,15.91
2023-04-10T14:14:23.944Z,15.83
2023-04-10T14:15:27.682Z,15.90
2023-04-10T14:16:30.940Z,16.07